sensor_id;sensor_type;location;lat;lon;timestamp;P1;durP1;ratioP1;P2;durP2;ratioP2
74674;SDS011;63200;48.810;12.352;2023-01-13T00:01:05;0.60;;;0.60;;
74674;SDS011;63200;48.810;12.352;2023-01-13T00:03:38;1.90;;;0.70;;
74674;SDS011;63200;48.810;12.352;2023-01-13T00:06:03;2.13;;;0.93;;
74674;SDS011;63200;48.810;12.352;2023-01-13T00:08:30;1.02;;;0.88;;
74674;SDS011;63200;48.810;12.352;2023-01-13T00:10:55;0.85;;;0.70;;
74674;SDS011;63200;48.810;12.352;2023-01-13T00:13:21;2.40;;;0.73;;
74674;SDS011;63200;48.810;12.352;2023-01-13T00:18:26;3.08;;;0.82;;
74674;SDS011;63200;48.810;12.352;2023-01-13T00:20:58;1.63;;;1.00;;
74674;SDS011;63200;48.810;12.352;2023-01-13T00:23:26;1.10;;;1.00;;
74674;SDS011;63200;48.810;12.352;2023-01-13T00:25:56;2.35;;;0.95;;
74674;SDS011;63200;48.810;12.352;2023-01-13T00:28:22;3.75;;;0.93;;
74674;SDS011;63200;48.810;12.352;2023-01-13T00:30:48;0.70;;;0.70;;
74674;SDS011;63200;48.810;12.352;2023-01-13T00:33:13;1.98;;;0.80;;
74674;SDS011;63200;48.810;12.352;2023-01-13T00:35:38;1.65;;;1.17;;
74674;SDS011;63200;48.810;12.352;2023-01-13T00:38:03;0.80;;;0.80;;
74674;SDS011;63200;48.810;12.352;2023-01-13T00:40:29;1.33;;;0.82;;
74674;SDS011;63200;48.810;12.352;2023-01-13T00:42:54;3.20;;;0.63;;
74674;SDS011;63200;48.810;12.352;2023-01-13T00:45:38;1.92;;;0.80;;
74674;SDS011;63200;48.810;12.352;2023-01-13T00:48:03;0.77;;;0.70;;
74674;SDS011;63200;48.810;12.352;2023-01-13T00:50:28;0.50;;;0.50;;
74674;SDS011;63200;48.810;12.352;2023-01-13T00:52:54;3.78;;;0.68;;
74674;SDS011;63200;48.810;12.352;2023-01-13T00:55:19;1.10;;;1.10;;
74674;SDS011;63200;48.810;12.352;2023-01-13T00:57:45;2.25;;;0.70;;
74674;SDS011;63200;48.810;12.352;2023-01-13T01:00:10;1.17;;;1.08;;
74674;SDS011;63200;48.810;12.352;2023-01-13T01:02:36;0.90;;;0.90;;
74674;SDS011;63200;48.810;12.352;2023-01-13T01:05:01;1.98;;;0.82;;
74674;SDS011;63200;48.810;12.352;2023-01-13T01:07:26;0.80;;;0.80;;
74674;SDS011;63200;48.810;12.352;2023-01-13T01:09:52;0.77;;;0.77;;
74674;SDS011;63200;48.810;12.352;2023-01-13T01:12:17;2.65;;;0.95;;
74674;SDS011;63200;48.810;12.352;2023-01-13T01:14:42;1.25;;;0.90;;
74674;SDS011;63200;48.810;12.352;2023-01-13T01:17:08;2.47;;;0.70;;
74674;SDS011;63200;48.810;12.352;2023-01-13T01:19:33;0.90;;;0.90;;
74674;SDS011;63200;48.810;12.352;2023-01-13T01:22:01;1.45;;;0.80;;
74674;SDS011;63200;48.810;12.352;2023-01-13T01:24:26;0.80;;;0.80;;
74674;SDS011;63200;48.810;12.352;2023-01-13T01:26:52;1.08;;;0.70;;
74674;SDS011;63200;48.810;12.352;2023-01-13T01:29:17;0.95;;;0.90;;
74674;SDS011;63200;48.810;12.352;2023-01-13T01:31:43;2.20;;;0.70;;
74674;SDS011;63200;48.810;12.352;2023-01-13T01:34:08;1.02;;;0.63;;
74674;SDS011;63200;48.810;12.352;2023-01-13T01:36:34;1.13;;;0.90;;
74674;SDS011;63200;48.810;12.352;2023-01-13T01:39:00;0.75;;;0.70;;
74674;SDS011;63200;48.810;12.352;2023-01-13T01:41:28;0.80;;;0.80;;
74674;SDS011;63200;48.810;12.352;2023-01-13T01:43:57;1.63;;;0.90;;
74674;SDS011;63200;48.810;12.352;2023-01-13T01:49:08;1.77;;;1.00;;
74674;SDS011;63200;48.810;12.352;2023-01-13T01:51:48;2.15;;;0.80;;
74674;SDS011;63200;48.810;12.352;2023-01-13T01:57:06;2.35;;;0.70;;
74674;SDS011;63200;48.810;12.352;2023-01-13T01:59:35;2.33;;;0.68;;
74674;SDS011;63200;48.810;12.352;2023-01-13T02:02:02;2.08;;;0.80;;
74674;SDS011;63200;48.810;12.352;2023-01-13T02:04:30;4.60;;;1.02;;
74674;SDS011;63200;48.810;12.352;2023-01-13T02:07:00;0.73;;;0.73;;
74674;SDS011;63200;48.810;12.352;2023-01-13T02:09:27;1.23;;;0.63;;
74674;SDS011;63200;48.810;12.352;2023-01-13T02:11:53;2.75;;;0.70;;
74674;SDS011;63200;48.810;12.352;2023-01-13T02:14:38;1.33;;;0.52;;
74674;SDS011;63200;48.810;12.352;2023-01-13T02:17:09;3.65;;;0.90;;
74674;SDS011;63200;48.810;12.352;2023-01-13T02:28:57;2.05;;;0.60;;
74674;SDS011;63200;48.810;12.352;2023-01-13T02:31:53;1.52;;;0.63;;
74674;SDS011;63200;48.810;12.352;2023-01-13T02:34:26;3.17;;;0.80;;
74674;SDS011;63200;48.810;12.352;2023-01-13T02:37:13;0.57;;;0.57;;
74674;SDS011;63200;48.810;12.352;2023-01-13T02:39:47;0.95;;;0.60;;
74674;SDS011;63200;48.810;12.352;2023-01-13T02:45:12;4.13;;;1.00;;
74674;SDS011;63200;48.810;12.352;2023-01-13T02:47:43;0.65;;;0.65;;
74674;SDS011;63200;48.810;12.352;2023-01-13T02:50:18;1.95;;;0.70;;
74674;SDS011;63200;48.810;12.352;2023-01-13T02:52:51;0.60;;;0.60;;
74674;SDS011;63200;48.810;12.352;2023-01-13T02:55:19;1.02;;;0.77;;
74674;SDS011;63200;48.810;12.352;2023-01-13T02:57:50;1.45;;;0.85;;
74674;SDS011;63200;48.810;12.352;2023-01-13T03:00:17;1.38;;;0.90;;
74674;SDS011;63200;48.810;12.352;2023-01-13T03:02:43;4.30;;;0.60;;
74674;SDS011;63200;48.810;12.352;2023-01-13T03:05:11;0.65;;;0.60;;
74674;SDS011;63200;48.810;12.352;2023-01-13T03:10:31;1.13;;;0.60;;
74674;SDS011;63200;48.810;12.352;2023-01-13T03:21:58;0.75;;;0.63;;
74674;SDS011;63200;48.810;12.352;2023-01-13T03:27:31;4.68;;;0.80;;
74674;SDS011;63200;48.810;12.352;2023-01-13T03:30:06;0.98;;;0.98;;
74674;SDS011;63200;48.810;12.352;2023-01-13T03:32:37;4.10;;;0.90;;
74674;SDS011;63200;48.810;12.352;2023-01-13T03:37:38;2.05;;;0.73;;
74674;SDS011;63200;48.810;12.352;2023-01-13T03:40:15;1.58;;;1.00;;
74674;SDS011;63200;48.810;12.352;2023-01-13T03:42:48;1.05;;;0.68;;
74674;SDS011;63200;48.810;12.352;2023-01-13T03:45:37;0.68;;;0.68;;
74674;SDS011;63200;48.810;12.352;2023-01-13T03:48:08;2.45;;;0.45;;
74674;SDS011;63200;48.810;12.352;2023-01-13T03:50:40;0.80;;;0.80;;
74674;SDS011;63200;48.810;12.352;2023-01-13T03:53:13;0.52;;;0.50;;
74674;SDS011;63200;48.810;12.352;2023-01-13T03:55:45;0.75;;;0.60;;
74674;SDS011;63200;48.810;12.352;2023-01-13T03:58:18;1.35;;;0.80;;
74674;SDS011;63200;48.810;12.352;2023-01-13T04:00:53;3.70;;;0.75;;
74674;SDS011;63200;48.810;12.352;2023-01-13T04:03:43;1.08;;;0.80;;
74674;SDS011;63200;48.810;12.352;2023-01-13T04:06:25;0.63;;;0.43;;
74674;SDS011;63200;48.810;12.352;2023-01-13T04:09:08;3.25;;;0.60;;
74674;SDS011;63200;48.810;12.352;2023-01-13T04:11:42;4.30;;;0.73;;
74674;SDS011;63200;48.810;12.352;2023-01-13T04:14:11;0.50;;;0.50;;
74674;SDS011;63200;48.810;12.352;2023-01-13T04:16:39;0.65;;;0.60;;
74674;SDS011;63200;48.810;12.352;2023-01-13T04:19:05;0.63;;;0.57;;
74674;SDS011;63200;48.810;12.352;2023-01-13T04:21:30;0.60;;;0.60;;
74674;SDS011;63200;48.810;12.352;2023-01-13T04:23:57;1.95;;;0.60;;
74674;SDS011;63200;48.810;12.352;2023-01-13T04:26:23;0.60;;;0.50;;
74674;SDS011;63200;48.810;12.352;2023-01-13T04:28:48;0.95;;;0.50;;
74674;SDS011;63200;48.810;12.352;2023-01-13T04:31:13;0.60;;;0.60;;
74674;SDS011;63200;48.810;12.352;2023-01-13T04:33:39;0.55;;;0.55;;
74674;SDS011;63200;48.810;12.352;2023-01-13T04:36:04;3.55;;;0.70;;
74674;SDS011;63200;48.810;12.352;2023-01-13T04:38:30;0.50;;;0.50;;
74674;SDS011;63200;48.810;12.352;2023-01-13T04:40:55;0.80;;;0.50;;
74674;SDS011;63200;48.810;12.352;2023-01-13T04:43:20;0.52;;;0.52;;
74674;SDS011;63200;48.810;12.352;2023-01-13T04:45:46;2.63;;;0.60;;
74674;SDS011;63200;48.810;12.352;2023-01-13T04:48:11;0.52;;;0.50;;
74674;SDS011;63200;48.810;12.352;2023-01-13T04:50:36;0.30;;;0.30;;
74674;SDS011;63200;48.810;12.352;2023-01-13T04:53:02;0.50;;;0.50;;
74674;SDS011;63200;48.810;12.352;2023-01-13T04:55:27;0.75;;;0.50;;
74674;SDS011;63200;48.810;12.352;2023-01-13T04:57:53;1.55;;;0.70;;
74674;SDS011;63200;48.810;12.352;2023-01-13T05:00:19;0.73;;;0.73;;
74674;SDS011;63200;48.810;12.352;2023-01-13T05:02:48;0.77;;;0.77;;
74674;SDS011;63200;48.810;12.352;2023-01-13T05:05:14;2.25;;;0.85;;
74674;SDS011;63200;48.810;12.352;2023-01-13T05:07:39;1.10;;;1.05;;
74674;SDS011;63200;48.810;12.352;2023-01-13T05:10:04;3.28;;;0.93;;
74674;SDS011;63200;48.810;12.352;2023-01-13T05:12:30;0.80;;;0.80;;
74674;SDS011;63200;48.810;12.352;2023-01-13T05:15:14;0.82;;;0.55;;
74674;SDS011;63200;48.810;12.352;2023-01-13T05:17:58;0.50;;;0.50;;
74674;SDS011;63200;48.810;12.352;2023-01-13T05:20:25;1.92;;;0.70;;
74674;SDS011;63200;48.810;12.352;2023-01-13T05:22:50;0.57;;;0.50;;
74674;SDS011;63200;48.810;12.352;2023-01-13T05:25:36;2.67;;;0.90;;
74674;SDS011;63200;48.810;12.352;2023-01-13T05:28:03;0.70;;;0.70;;
74674;SDS011;63200;48.810;12.352;2023-01-13T05:30:31;1.48;;;0.85;;
74674;SDS011;63200;48.810;12.352;2023-01-13T05:33:00;0.47;;;0.47;;
74674;SDS011;63200;48.810;12.352;2023-01-13T05:35:25;0.95;;;0.60;;
74674;SDS011;63200;48.810;12.352;2023-01-13T05:37:53;0.45;;;0.45;;
74674;SDS011;63200;48.810;12.352;2023-01-13T05:40:20;1.95;;;0.70;;
74674;SDS011;63200;48.810;12.352;2023-01-13T05:43:08;0.88;;;0.65;;
74674;SDS011;63200;48.810;12.352;2023-01-13T05:45:44;1.42;;;0.60;;
74674;SDS011;63200;48.810;12.352;2023-01-13T05:48:31;0.88;;;0.70;;
74674;SDS011;63200;48.810;12.352;2023-01-13T05:50:57;0.93;;;0.82;;
74674;SDS011;63200;48.810;12.352;2023-01-13T05:53:22;0.95;;;0.80;;
74674;SDS011;63200;48.810;12.352;2023-01-13T05:55:48;2.38;;;0.80;;
74674;SDS011;63200;48.810;12.352;2023-01-13T05:58:14;0.77;;;0.77;;
74674;SDS011;63200;48.810;12.352;2023-01-13T06:00:41;1.25;;;0.80;;
74674;SDS011;63200;48.810;12.352;2023-01-13T06:03:07;3.25;;;1.55;;
74674;SDS011;63200;48.810;12.352;2023-01-13T06:05:33;4.93;;;2.08;;
74674;SDS011;63200;48.810;12.352;2023-01-13T06:07:59;5.30;;;2.13;;
74674;SDS011;63200;48.810;12.352;2023-01-13T06:10:26;6.10;;;3.70;;
74674;SDS011;63200;48.810;12.352;2023-01-13T06:12:52;2.15;;;2.05;;
74674;SDS011;63200;48.810;12.352;2023-01-13T06:15:18;0.77;;;0.77;;
74674;SDS011;63200;48.810;12.352;2023-01-13T06:17:43;0.65;;;0.65;;
74674;SDS011;63200;48.810;12.352;2023-01-13T06:20:09;1.45;;;0.90;;
74674;SDS011;63200;48.810;12.352;2023-01-13T06:22:36;0.90;;;0.60;;
74674;SDS011;63200;48.810;12.352;2023-01-13T06:25:06;0.60;;;0.60;;
74674;SDS011;63200;48.810;12.352;2023-01-13T06:27:37;0.77;;;0.70;;
74674;SDS011;63200;48.810;12.352;2023-01-13T06:30:04;1.65;;;0.57;;
74674;SDS011;63200;48.810;12.352;2023-01-13T06:32:31;4.70;;;0.90;;
74674;SDS011;63200;48.810;12.352;2023-01-13T06:35:03;0.68;;;0.68;;
74674;SDS011;63200;48.810;12.352;2023-01-13T06:37:32;0.57;;;0.50;;
74674;SDS011;63200;48.810;12.352;2023-01-13T06:40:00;0.40;;;0.40;;
74674;SDS011;63200;48.810;12.352;2023-01-13T06:42:28;3.30;;;0.85;;
74674;SDS011;63200;48.810;12.352;2023-01-13T06:45:16;1.15;;;1.10;;
74674;SDS011;63200;48.810;12.352;2023-01-13T06:47:42;1.17;;;1.08;;
74674;SDS011;63200;48.810;12.352;2023-01-13T06:50:08;2.50;;;1.00;;
74674;SDS011;63200;48.810;12.352;2023-01-13T06:52:34;0.93;;;0.70;;
74674;SDS011;63200;48.810;12.352;2023-01-13T06:54:59;1.73;;;0.80;;
74674;SDS011;63200;48.810;12.352;2023-01-13T06:57:24;3.72;;;0.80;;
74674;SDS011;63200;48.810;12.352;2023-01-13T06:59:50;0.82;;;0.80;;
74674;SDS011;63200;48.810;12.352;2023-01-13T07:02:15;0.70;;;0.70;;
74674;SDS011;63200;48.810;12.352;2023-01-13T07:04:40;2.63;;;0.90;;
74674;SDS011;63200;48.810;12.352;2023-01-13T07:07:05;1.02;;;0.60;;
74674;SDS011;63200;48.810;12.352;2023-01-13T07:09:32;0.75;;;0.70;;
74674;SDS011;63200;48.810;12.352;2023-01-13T07:11:58;0.68;;;0.65;;
74674;SDS011;63200;48.810;12.352;2023-01-13T07:14:23;0.60;;;0.60;;
74674;SDS011;63200;48.810;12.352;2023-01-13T07:17:07;2.47;;;0.80;;
74674;SDS011;63200;48.810;12.352;2023-01-13T07:19:32;2.80;;;0.80;;
74674;SDS011;63200;48.810;12.352;2023-01-13T07:21:58;2.38;;;0.90;;
74674;SDS011;63200;48.810;12.352;2023-01-13T07:24:23;0.70;;;0.70;;
74674;SDS011;63200;48.810;12.352;2023-01-13T07:26:49;1.33;;;0.63;;
74674;SDS011;63200;48.810;12.352;2023-01-13T07:29:14;0.60;;;0.60;;
74674;SDS011;63200;48.810;12.352;2023-01-13T07:31:40;0.70;;;0.70;;
74674;SDS011;63200;48.810;12.352;2023-01-13T07:34:05;0.65;;;0.65;;
74674;SDS011;63200;48.810;12.352;2023-01-13T07:36:31;1.95;;;0.77;;
74674;SDS011;63200;48.810;12.352;2023-01-13T07:38:56;0.95;;;0.55;;
74674;SDS011;63200;48.810;12.352;2023-01-13T07:41:22;0.73;;;0.73;;
74674;SDS011;63200;48.810;12.352;2023-01-13T07:44:06;1.63;;;0.80;;
74674;SDS011;63200;48.810;12.352;2023-01-13T07:46:34;0.90;;;0.80;;
74674;SDS011;63200;48.810;12.352;2023-01-13T07:49:00;1.10;;;1.00;;
74674;SDS011;63200;48.810;12.352;2023-01-13T07:51:25;1.10;;;0.98;;
74674;SDS011;63200;48.810;12.352;2023-01-13T07:53:51;2.05;;;1.00;;
74674;SDS011;63200;48.810;12.352;2023-01-13T07:56:16;1.67;;;1.00;;
74674;SDS011;63200;48.810;12.352;2023-01-13T07:58:42;1.38;;;1.27;;
74674;SDS011;63200;48.810;12.352;2023-01-13T08:01:09;1.08;;;1.08;;
74674;SDS011;63200;48.810;12.352;2023-01-13T08:03:36;2.00;;;0.82;;
74674;SDS011;63200;48.810;12.352;2023-01-13T08:06:02;1.30;;;0.80;;
74674;SDS011;63200;48.810;12.352;2023-01-13T08:08:27;0.82;;;0.32;;
74674;SDS011;63200;48.810;12.352;2023-01-13T08:10:52;0.80;;;0.80;;
74674;SDS011;63200;48.810;12.352;2023-01-13T08:13:18;0.80;;;0.80;;
74674;SDS011;63200;48.810;12.352;2023-01-13T08:15:45;1.80;;;0.50;;
74674;SDS011;63200;48.810;12.352;2023-01-13T08:18:12;0.80;;;0.80;;
74674;SDS011;63200;48.810;12.352;2023-01-13T08:20:38;1.38;;;0.98;;
74674;SDS011;63200;48.810;12.352;2023-01-13T08:23:03;0.70;;;0.70;;
74674;SDS011;63200;48.810;12.352;2023-01-13T08:25:29;2.20;;;0.90;;
74674;SDS011;63200;48.810;12.352;2023-01-13T08:27:55;3.17;;;1.42;;
74674;SDS011;63200;48.810;12.352;2023-01-13T08:30:21;1.65;;;1.08;;
74674;SDS011;63200;48.810;12.352;2023-01-13T08:32:47;1.33;;;1.00;;
74674;SDS011;63200;48.810;12.352;2023-01-13T08:35:14;0.82;;;0.70;;
74674;SDS011;63200;48.810;12.352;2023-01-13T08:37:41;0.85;;;0.65;;
74674;SDS011;63200;48.810;12.352;2023-01-13T08:40:07;1.20;;;0.80;;
74674;SDS011;63200;48.810;12.352;2023-01-13T08:42:33;2.15;;;1.13;;
74674;SDS011;63200;48.810;12.352;2023-01-13T08:44:59;1.77;;;0.90;;
74674;SDS011;63200;48.810;12.352;2023-01-13T08:47:25;0.68;;;0.50;;
74674;SDS011;63200;48.810;12.352;2023-01-13T08:49:52;1.85;;;0.77;;
74674;SDS011;63200;48.810;12.352;2023-01-13T08:52:17;1.30;;;1.10;;
74674;SDS011;63200;48.810;12.352;2023-01-13T08:54:43;2.67;;;2.22;;
74674;SDS011;63200;48.810;12.352;2023-01-13T08:57:08;2.05;;;0.93;;
74674;SDS011;63200;48.810;12.352;2023-01-13T08:59:34;1.00;;;1.00;;
74674;SDS011;63200;48.810;12.352;2023-01-13T09:01:59;0.55;;;0.52;;
74674;SDS011;63200;48.810;12.352;2023-01-13T09:04:25;0.80;;;0.80;;
74674;SDS011;63200;48.810;12.352;2023-01-13T09:06:52;1.00;;;1.00;;
74674;SDS011;63200;48.810;12.352;2023-01-13T09:09:18;0.70;;;0.70;;
74674;SDS011;63200;48.810;12.352;2023-01-13T09:11:44;0.47;;;0.47;;
74674;SDS011;63200;48.810;12.352;2023-01-13T09:14:32;0.75;;;0.55;;
74674;SDS011;63200;48.810;12.352;2023-01-13T09:16:59;0.50;;;0.50;;
74674;SDS011;63200;48.810;12.352;2023-01-13T09:19:25;0.60;;;0.60;;
74674;SDS011;63200;48.810;12.352;2023-01-13T09:21:51;1.33;;;0.50;;
74674;SDS011;63200;48.810;12.352;2023-01-13T09:24:17;0.40;;;0.40;;
74674;SDS011;63200;48.810;12.352;2023-01-13T09:26:43;1.55;;;0.85;;
74674;SDS011;63200;48.810;12.352;2023-01-13T09:29:08;0.60;;;0.60;;
74674;SDS011;63200;48.810;12.352;2023-01-13T09:31:34;1.65;;;0.65;;
74674;SDS011;63200;48.810;12.352;2023-01-13T09:34:00;0.95;;;0.82;;
74674;SDS011;63200;48.810;12.352;2023-01-13T09:36:44;0.55;;;0.38;;
74674;SDS011;63200;48.810;12.352;2023-01-13T09:39:09;0.80;;;0.50;;
74674;SDS011;63200;48.810;12.352;2023-01-13T09:41:37;0.50;;;0.50;;
74674;SDS011;63200;48.810;12.352;2023-01-13T09:44:26;0.95;;;0.60;;
74674;SDS011;63200;48.810;12.352;2023-01-13T09:47:01;2.33;;;0.70;;
74674;SDS011;63200;48.810;12.352;2023-01-13T09:49:35;2.08;;;0.80;;
74674;SDS011;63200;48.810;12.352;2023-01-13T09:52:04;1.77;;;0.75;;
74674;SDS011;63200;48.810;12.352;2023-01-13T09:54:45;1.13;;;0.50;;
74674;SDS011;63200;48.810;12.352;2023-01-13T09:57:14;0.57;;;0.57;;
74674;SDS011;63200;48.810;12.352;2023-01-13T09:59:41;1.30;;;0.70;;
74674;SDS011;63200;48.810;12.352;2023-01-13T10:04:41;0.38;;;0.38;;
74674;SDS011;63200;48.810;12.352;2023-01-13T10:07:09;0.82;;;0.82;;
74674;SDS011;63200;48.810;12.352;2023-01-13T10:12:12;0.45;;;0.45;;
74674;SDS011;63200;48.810;12.352;2023-01-13T10:15:00;0.57;;;0.57;;
74674;SDS011;63200;48.810;12.352;2023-01-13T10:17:45;0.75;;;0.55;;
74674;SDS011;63200;48.810;12.352;2023-01-13T10:20:21;0.73;;;0.70;;
74674;SDS011;63200;48.810;12.352;2023-01-13T10:28:52;0.40;;;0.40;;
74674;SDS011;63200;48.810;12.352;2023-01-13T10:31:18;1.10;;;1.00;;
74674;SDS011;63200;48.810;12.352;2023-01-13T10:33:45;1.65;;;0.60;;
74674;SDS011;63200;48.810;12.352;2023-01-13T10:36:15;1.05;;;0.60;;
74674;SDS011;63200;48.810;12.352;2023-01-13T10:38:45;0.52;;;0.52;;
74674;SDS011;63200;48.810;12.352;2023-01-13T10:43:37;0.52;;;0.52;;
74674;SDS011;63200;48.810;12.352;2023-01-13T10:46:13;2.45;;;0.50;;
74674;SDS011;63200;48.810;12.352;2023-01-13T10:48:43;1.80;;;0.38;;
74674;SDS011;63200;48.810;12.352;2023-01-13T10:51:24;0.90;;;0.57;;
74674;SDS011;63200;48.810;12.352;2023-01-13T10:54:10;0.40;;;0.40;;
74674;SDS011;63200;48.810;12.352;2023-01-13T10:56:44;0.68;;;0.68;;
74674;SDS011;63200;48.810;12.352;2023-01-13T11:01:40;1.02;;;0.90;;
74674;SDS011;63200;48.810;12.352;2023-01-13T11:04:30;0.60;;;0.60;;
74674;SDS011;63200;48.810;12.352;2023-01-13T11:07:03;0.70;;;0.70;;
74674;SDS011;63200;48.810;12.352;2023-01-13T11:09:40;0.63;;;0.45;;
74674;SDS011;63200;48.810;12.352;2023-01-13T11:12:06;0.60;;;0.60;;
74674;SDS011;63200;48.810;12.352;2023-01-13T11:14:55;1.13;;;0.70;;
74674;SDS011;63200;48.810;12.352;2023-01-13T11:17:26;0.70;;;0.70;;
74674;SDS011;63200;48.810;12.352;2023-01-13T11:22:38;0.80;;;0.60;;
74674;SDS011;63200;48.810;12.352;2023-01-13T11:25:26;0.40;;;0.38;;
74674;SDS011;63200;48.810;12.352;2023-01-13T11:28:32;0.80;;;0.63;;
74674;SDS011;63200;48.810;12.352;2023-01-13T11:31:00;0.45;;;0.35;;
74674;SDS011;63200;48.810;12.352;2023-01-13T11:34:02;0.50;;;0.50;;
74674;SDS011;63200;48.810;12.352;2023-01-13T11:36:51;0.50;;;0.50;;
74674;SDS011;63200;48.810;12.352;2023-01-13T11:45:02;0.57;;;0.43;;
74674;SDS011;63200;48.810;12.352;2023-01-13T11:47:28;1.85;;;0.70;;
74674;SDS011;63200;48.810;12.352;2023-01-13T11:49:55;0.10;;;0.10;;
74674;SDS011;63200;48.810;12.352;2023-01-13T11:52:22;0.40;;;0.40;;
74674;SDS011;63200;48.810;12.352;2023-01-13T12:03:16;0.45;;;0.43;;
74674;SDS011;63200;48.810;12.352;2023-01-13T12:05:55;1.10;;;0.50;;
74674;SDS011;63200;48.810;12.352;2023-01-13T12:08:39;0.80;;;0.57;;
74674;SDS011;63200;48.810;12.352;2023-01-13T12:11:31;0.68;;;0.68;;
74674;SDS011;63200;48.810;12.352;2023-01-13T12:17:08;0.60;;;0.60;;
74674;SDS011;63200;48.810;12.352;2023-01-13T12:19:48;0.60;;;0.60;;
74674;SDS011;63200;48.810;12.352;2023-01-13T12:22:15;0.77;;;0.77;;
74674;SDS011;63200;48.810;12.352;2023-01-13T12:27:49;0.63;;;0.52;;
74674;SDS011;63200;48.810;12.352;2023-01-13T12:30:36;1.23;;;0.40;;
74674;SDS011;63200;48.810;12.352;2023-01-13T12:33:12;1.20;;;0.50;;
74674;SDS011;63200;48.810;12.352;2023-01-13T12:36:00;1.10;;;0.60;;
74674;SDS011;63200;48.810;12.352;2023-01-13T12:38:57;0.68;;;0.50;;
74674;SDS011;63200;48.810;12.352;2023-01-13T12:41:39;0.75;;;0.40;;
74674;SDS011;63200;48.810;12.352;2023-01-13T12:47:36;0.43;;;0.43;;
74674;SDS011;63200;48.810;12.352;2023-01-13T12:52:45;2.10;;;0.30;;
74674;SDS011;63200;48.810;12.352;2023-01-13T12:55:13;0.38;;;0.38;;
74674;SDS011;63200;48.810;12.352;2023-01-13T12:57:53;0.20;;;0.20;;
74674;SDS011;63200;48.810;12.352;2023-01-13T13:08:25;0.68;;;0.63;;
74674;SDS011;63200;48.810;12.352;2023-01-13T13:10:55;0.50;;;0.50;;
74674;SDS011;63200;48.810;12.352;2023-01-13T13:13:45;0.80;;;0.80;;
74674;SDS011;63200;48.810;12.352;2023-01-13T13:18:50;0.50;;;0.50;;
74674;SDS011;63200;48.810;12.352;2023-01-13T13:21:16;0.80;;;0.80;;
74674;SDS011;63200;48.810;12.352;2023-01-13T13:29:00;0.63;;;0.47;;
74674;SDS011;63200;48.810;12.352;2023-01-13T13:37:41;0.77;;;0.40;;
74674;SDS011;63200;48.810;12.352;2023-01-13T13:40:38;0.30;;;0.30;;
74674;SDS011;63200;48.810;12.352;2023-01-13T13:43:24;0.75;;;0.40;;
74674;SDS011;63200;48.810;12.352;2023-01-13T13:51:55;0.20;;;0.20;;
74674;SDS011;63200;48.810;12.352;2023-01-13T13:54:25;1.60;;;0.55;;
74674;SDS011;63200;48.810;12.352;2023-01-13T13:56:51;2.05;;;0.40;;
74674;SDS011;63200;48.810;12.352;2023-01-13T13:59:21;0.90;;;0.60;;
74674;SDS011;63200;48.810;12.352;2023-01-13T14:01:50;0.75;;;0.55;;
74674;SDS011;63200;48.810;12.352;2023-01-13T14:04:25;1.45;;;0.20;;
74674;SDS011;63200;48.810;12.352;2023-01-13T14:06:59;1.75;;;0.77;;
74674;SDS011;63200;48.810;12.352;2023-01-13T14:09:44;1.70;;;0.50;;
74674;SDS011;63200;48.810;12.352;2023-01-13T14:12:18;3.33;;;0.52;;
74674;SDS011;63200;48.810;12.352;2023-01-13T14:14:46;0.50;;;0.50;;
74674;SDS011;63200;48.810;12.352;2023-01-13T14:19:53;0.40;;;0.40;;
74674;SDS011;63200;48.810;12.352;2023-01-13T14:22:20;3.72;;;0.60;;
74674;SDS011;63200;48.810;12.352;2023-01-13T14:24:46;2.28;;;0.40;;
74674;SDS011;63200;48.810;12.352;2023-01-13T14:27:19;0.47;;;0.40;;
74674;SDS011;63200;48.810;12.352;2023-01-13T14:29:44;0.98;;;0.70;;
74674;SDS011;63200;48.810;12.352;2023-01-13T14:32:11;0.73;;;0.50;;
74674;SDS011;63200;48.810;12.352;2023-01-13T14:34:42;0.63;;;0.43;;
74674;SDS011;63200;48.810;12.352;2023-01-13T14:37:21;1.48;;;0.70;;
74674;SDS011;63200;48.810;12.352;2023-01-13T14:39:46;1.50;;;0.40;;
74674;SDS011;63200;48.810;12.352;2023-01-13T14:42:12;0.30;;;0.30;;
74674;SDS011;63200;48.810;12.352;2023-01-13T14:44:42;1.30;;;0.40;;
74674;SDS011;63200;48.810;12.352;2023-01-13T14:47:19;0.30;;;0.30;;
74674;SDS011;63200;48.810;12.352;2023-01-13T14:49:56;0.20;;;0.20;;
74674;SDS011;63200;48.810;12.352;2023-01-13T14:52:27;3.20;;;0.57;;
74674;SDS011;63200;48.810;12.352;2023-01-13T14:57:35;0.57;;;0.55;;
74674;SDS011;63200;48.810;12.352;2023-01-13T15:02:38;1.40;;;0.40;;
74674;SDS011;63200;48.810;12.352;2023-01-13T15:10:34;0.80;;;0.80;;
74674;SDS011;63200;48.810;12.352;2023-01-13T15:13:05;0.40;;;0.40;;
74674;SDS011;63200;48.810;12.352;2023-01-13T15:17:58;2.72;;;0.98;;
74674;SDS011;63200;48.810;12.352;2023-01-13T15:20:25;1.00;;;0.80;;
74674;SDS011;63200;48.810;12.352;2023-01-13T15:22:54;0.88;;;0.88;;
74674;SDS011;63200;48.810;12.352;2023-01-13T15:25:21;11.73;;;3.67;;
74674;SDS011;63200;48.810;12.352;2023-01-13T15:27:48;2.40;;;0.90;;
74674;SDS011;63200;48.810;12.352;2023-01-13T15:30:18;1.20;;;0.80;;
74674;SDS011;63200;48.810;12.352;2023-01-13T15:32:46;3.00;;;1.30;;
74674;SDS011;63200;48.810;12.352;2023-01-13T15:35:12;0.77;;;0.77;;
74674;SDS011;63200;48.810;12.352;2023-01-13T15:37:38;1.27;;;1.08;;
74674;SDS011;63200;48.810;12.352;2023-01-13T15:40:05;4.60;;;1.35;;
74674;SDS011;63200;48.810;12.352;2023-01-13T15:42:46;0.90;;;0.90;;
74674;SDS011;63200;48.810;12.352;2023-01-13T15:45:31;3.55;;;1.15;;
74674;SDS011;63200;48.810;12.352;2023-01-13T15:48:17;4.47;;;1.13;;
74674;SDS011;63200;48.810;12.352;2023-01-13T15:50:44;2.33;;;1.38;;
74674;SDS011;63200;48.810;12.352;2023-01-13T15:53:10;1.00;;;0.93;;
74674;SDS011;63200;48.810;12.352;2023-01-13T15:55:37;3.22;;;1.80;;
74674;SDS011;63200;48.810;12.352;2023-01-13T15:58:03;1.40;;;1.00;;
74674;SDS011;63200;48.810;12.352;2023-01-13T16:00:29;4.88;;;1.50;;
74674;SDS011;63200;48.810;12.352;2023-01-13T16:02:54;1.67;;;1.00;;
74674;SDS011;63200;48.810;12.352;2023-01-13T16:05:19;4.95;;;1.02;;
74674;SDS011;63200;48.810;12.352;2023-01-13T16:07:45;1.58;;;1.48;;
74674;SDS011;63200;48.810;12.352;2023-01-13T16:10:17;2.65;;;0.82;;
74674;SDS011;63200;48.810;12.352;2023-01-13T16:12:46;3.50;;;1.10;;
74674;SDS011;63200;48.810;12.352;2023-01-13T16:15:12;1.33;;;1.23;;
74674;SDS011;63200;48.810;12.352;2023-01-13T16:17:38;2.63;;;1.70;;
74674;SDS011;63200;48.810;12.352;2023-01-13T16:20:04;19.38;;;6.38;;
74674;SDS011;63200;48.810;12.352;2023-01-13T16:22:30;17.63;;;4.32;;
74674;SDS011;63200;48.810;12.352;2023-01-13T16:24:56;7.22;;;3.47;;
74674;SDS011;63200;48.810;12.352;2023-01-13T16:27:22;28.20;;;10.38;;
74674;SDS011;63200;48.810;12.352;2023-01-13T16:29:49;52.42;;;16.85;;
74674;SDS011;63200;48.810;12.352;2023-01-13T16:32:15;43.72;;;11.90;;
74674;SDS011;63200;48.810;12.352;2023-01-13T16:34:42;22.58;;;7.03;;
74674;SDS011;63200;48.810;12.352;2023-01-13T16:37:16;12.10;;;4.57;;
74674;SDS011;63200;48.810;12.352;2023-01-13T16:39:44;10.45;;;4.68;;
74674;SDS011;63200;48.810;12.352;2023-01-13T16:42:09;1.50;;;1.40;;
74674;SDS011;63200;48.810;12.352;2023-01-13T16:44:34;6.50;;;3.88;;
74674;SDS011;63200;48.810;12.352;2023-01-13T16:47:00;4.75;;;1.30;;
74674;SDS011;63200;48.810;12.352;2023-01-13T16:49:26;3.58;;;2.13;;
74674;SDS011;63200;48.810;12.352;2023-01-13T16:51:51;2.08;;;1.52;;
74674;SDS011;63200;48.810;12.352;2023-01-13T16:54:16;5.45;;;3.05;;
74674;SDS011;63200;48.810;12.352;2023-01-13T16:56:41;6.20;;;3.50;;